Kaolack, Kaolack Airport (GOOK)

NameKaolack Airport
CityKaolack
CountrySenegal
ICAOGOOK
IATAKLC
Altitude8 m
CoordinatesGoogle Map
Live Air TrafficLiveATC.net
METARGOOK 130700Z 36008KT CAVOK 21/13 Q1009
2019-11-13 07:00:00 Wind: North (360°) 4.12 m/s - Visibility: > 10000 m - Weather: CAVOK - Temperature: 21 °C - Dew point: 13 °C - Humidity: 60.4% - Pressure: 1009 hPa

Sorry, no flights used the airport in this database.